Time;durP1;ratioP1;P1;durP2;ratioP2;P2;SDS_P1;SDS_P2;PMS_P1;PMS_P2;Temp;Humidity;BMP_temperature;BMP_pressure;BME280_temperature;BME280_humidity;BME280_pressure;Samples;Min_cycle;Max_cycle;Signal;HPM_P1;HPM_P2
2023/09/13 00:02:16;;;;;;;12.37;7.23;;;22.00;99.90;;;;;;5074395;28;20188;-76
2023/09/13 00:04:42;;;;;;;10.63;6.83;;;21.90;99.90;;;;;;5092592;28;20207;-76
2023/09/13 00:07:07;;;;;;;10.10;6.93;;;21.90;99.90;;;;;;5092783;28;20520;-76
2023/09/13 00:09:33;;;;;;;9.33;6.40;;;21.90;99.90;;;;;;5092838;28;20238;-77
2023/09/13 00:11:58;;;;;;;13.97;7.70;;;21.80;99.90;;;;;;5092490;28;20257;-76
2023/09/13 00:14:24;;;;;;;11.53;6.37;;;21.80;99.90;;;;;;5074191;28;20236;-76
2023/09/13 00:16:52;;;;;;;13.37;7.00;;;21.70;99.90;;;;;;5092318;28;20208;-76
2023/09/13 00:19:18;;;;;;;10.00;6.40;;;21.70;99.90;;;;;;5092351;28;20188;-76
2023/09/13 00:21:43;;;;;;;7.73;6.93;;;21.60;99.90;;;;;;5092431;28;20948;-76
2023/09/13 00:24:10;;;;;;;9.13;6.33;;;21.60;99.90;;;;;;5073781;28;20697;-76
2023/09/13 00:26:36;;;;;;;8.07;6.50;;;21.50;99.90;;;;;;5092152;28;20187;-76
2023/09/13 00:29:02;;;;;;;11.80;7.20;;;21.40;99.90;;;;;;5092358;28;20580;-76
2023/09/13 00:31:27;;;;;;;8.83;7.10;;;21.40;99.90;;;;;;5073967;28;20433;-76
2023/09/13 00:33:53;;;;;;;7.90;6.90;;;21.30;99.90;;;;;;5092017;28;20441;-76
2023/09/13 00:36:18;;;;;;;9.80;7.60;;;21.20;99.90;;;;;;5092028;28;20298;-75
2023/09/13 00:38:44;;;;;;;12.07;7.73;;;21.20;99.90;;;;;;5073660;28;20183;-75
2023/09/13 00:41:10;;;;;;;10.60;7.17;;;21.10;99.90;;;;;;5073665;28;20183;-75
2023/09/13 00:43:36;;;;;;;11.13;7.60;;;20.90;99.90;;;;;;5073592;28;20208;-75
2023/09/13 00:46:03;;;;;;;8.30;7.20;;;20.80;99.90;;;;;;5073490;28;20183;-75
2023/09/13 00:48:29;;;;;;;16.87;9.33;;;20.70;99.90;;;;;;5073643;28;20191;-75
2023/09/13 00:50:56;;;;;;;10.00;7.97;;;20.60;99.90;;;;;;5091596;28;20466;-75
2023/09/13 00:53:23;;;;;;;9.50;8.10;;;20.40;99.90;;;;;;5056501;28;20455;-75
2023/09/13 00:55:51;;;;;;;10.13;8.60;;;20.30;99.90;;;;;;5091436;28;20501;-75
2023/09/13 00:58:18;;;;;;;14.53;7.20;;;20.30;99.90;;;;;;5073207;28;20962;-76
2023/09/13 01:00:44;;;;;;;11.97;8.50;;;20.30;99.90;;;;;;5073576;28;20936;-76
2023/09/13 01:03:10;;;;;;;9.43;8.10;;;20.20;99.90;;;;;;5091468;28;20435;-75
2023/09/13 01:05:36;;;;;;;10.57;8.30;;;20.10;99.90;;;;;;5091672;28;20421;-76
2023/09/13 01:08:03;;;;;;;8.57;6.90;;;20.00;99.90;;;;;;5091533;28;20185;-76
2023/09/13 01:10:29;;;;;;;14.10;9.13;;;20.00;99.90;;;;;;5073113;28;20412;-75
2023/09/13 01:12:55;;;;;;;10.60;8.30;;;20.00;99.90;;;;;;5090580;28;20424;-75
2023/09/13 01:15:22;;;;;;;8.40;7.60;;;19.90;99.90;;;;;;5073034;28;20661;-75
2023/09/13 01:17:54;;;;;;;13.20;8.20;;;19.70;99.90;;;;;;5091254;28;20175;-75
2023/09/13 01:20:51;;;;;;;10.77;9.67;;;19.60;99.90;;;;;;5091198;28;20814;-75
2023/09/13 01:23:44;;;;;;;12.03;9.23;;;19.40;99.90;;;;;;5091348;28;20428;-75
2023/09/13 01:26:37;;;;;;;11.10;8.97;;;19.30;99.90;;;;;;5091091;28;21182;-75
2023/09/13 01:29:04;;;;;;;12.90;9.40;;;19.40;99.90;;;;;;5091076;28;20409;-75
2023/09/13 01:31:31;;;;;;;16.03;9.70;;;19.20;99.90;;;;;;5072746;28;20412;-75
2023/09/13 01:33:56;;;;;;;12.20;9.87;;;19.10;99.90;;;;;;5091231;28;20436;-76
2023/09/13 01:36:22;;;;;;;15.47;9.27;;;19.00;99.90;;;;;;5091195;28;20471;-76
2023/09/13 01:38:48;;;;;;;13.40;9.03;;;19.10;99.90;;;;;;5072456;28;20816;-75
2023/09/13 01:41:25;;;;;;;9.07;8.20;;;19.20;99.90;;;;;;5090889;28;20182;-75
2023/09/13 01:43:53;;;;;;;11.87;9.70;;;19.30;99.90;;;;;;5090890;28;20919;-75
2023/09/13 01:46:20;;;;;;;10.80;8.43;;;19.30;99.90;;;;;;5090710;28;20485;-75
2023/09/13 01:48:46;;;;;;;13.77;9.37;;;19.30;99.90;;;;;;5072248;28;20427;-77
2023/09/13 01:51:13;;;;;;;11.60;9.17;;;19.30;99.90;;;;;;5072428;28;20523;-75
2023/09/13 01:53:45;;;;;;;9.50;8.10;;;19.20;99.90;;;;;;5090376;28;20437;-75
2023/09/13 01:56:11;;;;;;;14.33;9.30;;;19.20;99.90;;;;;;5072197;28;20836;-75
2023/09/13 01:58:37;;;;;;;13.20;9.50;;;19.20;99.90;;;;;;5090746;28;20416;-76
2023/09/13 02:01:03;;;;;;;12.23;10.37;;;19.00;99.90;;;;;;5090973;28;20554;-75
2023/09/13 02:03:28;;;;;;;14.20;10.20;;;19.00;99.90;;;;;;5091213;28;20195;-76
2023/09/13 02:05:54;;;;;;;10.97;9.53;;;19.00;99.90;;;;;;5072928;28;20186;-76
2023/09/13 02:08:19;;;;;;;14.50;10.07;;;18.90;99.90;;;;;;5056341;28;20192;-76
2023/09/13 02:10:48;;;;;;;12.37;10.40;;;18.80;99.90;;;;;;5090920;28;20205;-76
2023/09/13 02:13:14;;;;;;;15.80;10.90;;;18.70;99.90;;;;;;5055924;28;20679;-76
2023/09/13 02:15:40;;;;;;;10.93;9.63;;;18.60;99.90;;;;;;5072365;28;20442;-76
2023/09/13 02:18:06;;;;;;;14.13;9.90;;;18.70;99.90;;;;;;5090794;28;20174;-76
2023/09/13 02:20:32;;;;;;;11.93;9.50;;;18.80;99.90;;;;;;5072610;28;21282;-76
2023/09/13 02:22:57;;;;;;;12.80;8.17;;;18.90;99.90;;;;;;5071796;28;20486;-77
2023/09/13 02:25:23;;;;;;;8.97;8.07;;;19.00;99.90;;;;;;5090284;28;20549;-75
2023/09/13 02:27:49;;;;;;;10.10;7.93;;;19.10;99.90;;;;;;5071799;28;20287;-76
2023/09/13 02:30:14;;;;;;;9.20;8.17;;;19.20;99.90;;;;;;5089948;28;20187;-76
2023/09/13 02:32:41;;;;;;;10.43;8.60;;;19.10;99.90;;;;;;5090007;28;20183;-76
2023/09/13 02:35:07;;;;;;;12.70;9.10;;;19.10;99.90;;;;;;5089667;28;20261;-76
2023/09/13 02:37:32;;;;;;;11.87;9.57;;;19.10;99.90;;;;;;5089504;28;20460;-76
2023/09/13 02:39:58;;;;;;;10.73;8.93;;;19.00;99.90;;;;;;5089629;28;20961;-75
2023/09/13 02:42:24;;;;;;;10.43;9.03;;;19.00;99.90;;;;;;5071173;28;20186;-76
2023/09/13 02:44:50;;;;;;;11.20;9.20;;;19.10;99.90;;;;;;5089506;28;20443;-75
2023/09/13 02:47:16;;;;;;;8.97;7.43;;;19.10;99.90;;;;;;5089591;28;20206;-75
2023/09/13 02:49:42;;;;;;;12.63;8.50;;;19.10;99.90;;;;;;5089502;28;20787;-76
2023/09/13 02:52:07;;;;;;;11.60;8.53;;;19.10;99.90;;;;;;5089356;28;20202;-75
2023/09/13 02:54:34;;;;;;;11.67;8.60;;;19.20;99.90;;;;;;5054878;28;20340;-75
2023/09/13 02:57:00;;;;;;;12.53;8.80;;;19.20;99.90;;;;;;5089462;28;21201;-76
2023/09/13 02:59:25;;;;;;;12.20;8.00;;;19.20;99.90;;;;;;5089383;28;20665;-76
2023/09/13 03:01:51;;;;;;;11.43;7.90;;;19.10;99.90;;;;;;5089311;28;20448;-76
2023/09/13 03:04:17;;;;;;;11.23;8.37;;;19.10;99.90;;;;;;5054143;28;20203;-75
2023/09/13 03:06:42;;;;;;;12.07;9.80;;;19.10;99.90;;;;;;5070721;28;20193;-76
2023/09/13 03:09:08;;;;;;;15.03;8.13;;;19.10;99.90;;;;;;5089109;28;20556;-75
2023/09/13 03:11:38;;;;;;;11.90;8.13;;;19.10;99.90;;;;;;5089093;28;20182;-75
2023/09/13 03:14:04;;;;;;;18.30;9.10;;;19.00;99.90;;;;;;5088966;28;20201;-75
2023/09/13 03:16:30;;;;;;;11.80;8.40;;;19.00;99.90;;;;;;5088818;28;20471;-74
2023/09/13 03:18:58;;;;;;;14.07;9.40;;;19.00;99.90;;;;;;5054055;28;20796;-74
2023/09/13 03:21:24;;;;;;;11.47;9.10;;;19.00;99.90;;;;;;5088978;28;20219;-75
2023/09/13 03:23:50;;;;;;;10.77;8.80;;;19.00;99.90;;;;;;5088872;28;20941;-75
2023/09/13 03:26:20;;;;;;;11.10;8.60;;;18.90;99.90;;;;;;5070540;28;20439;-75
2023/09/13 03:28:47;;;;;;;11.30;8.67;;;18.90;99.90;;;;;;5070522;28;20277;-75
2023/09/13 03:31:14;;;;;;;11.27;9.17;;;18.80;99.90;;;;;;5088814;28;21085;-75
2023/09/13 03:33:41;;;;;;;12.50;10.30;;;18.80;99.90;;;;;;5070443;28;20515;-74
2023/09/13 03:36:10;;;;;;;13.97;9.63;;;18.80;99.90;;;;;;5088337;28;20555;-75
2023/09/13 03:38:38;;;;;;;10.47;9.00;;;18.70;99.90;;;;;;5055192;28;20420;-75
2023/09/13 03:41:04;;;;;;;12.47;7.40;;;18.70;99.90;;;;;;5070260;28;20557;-75
2023/09/13 03:43:30;;;;;;;13.97;8.00;;;18.60;99.90;;;;;;5070687;28;20997;-75
2023/09/13 03:45:56;;;;;;;11.37;8.80;;;18.60;99.90;;;;;;5070501;28;20562;-75
2023/09/13 03:48:21;;;;;;;11.90;9.47;;;18.50;99.90;;;;;;5088780;28;20195;-75
2023/09/13 03:50:48;;;;;;;11.10;8.70;;;18.40;99.90;;;;;;5070796;28;20735;-75
2023/09/13 03:53:14;;;;;;;12.80;7.97;;;18.50;99.90;;;;;;5070790;28;20764;-75
2023/09/13 03:55:39;;;;;;;9.63;8.00;;;18.50;99.90;;;;;;5053705;28;20456;-75
2023/09/13 03:58:05;;;;;;;9.43;8.53;;;18.50;99.90;;;;;;5070638;28;20193;-75
2023/09/13 04:00:30;;;;;;;11.10;8.67;;;18.60;99.90;;;;;;5070936;28;20190;-75
2023/09/13 04:02:56;;;;;;;9.03;8.13;;;18.60;99.90;;;;;;5089364;28;20229;-76
2023/09/13 04:05:22;;;;;;;11.60;9.00;;;18.60;99.90;;;;;;5071205;28;20178;-76
2023/09/13 04:07:47;;;;;;;9.60;8.60;;;18.50;99.90;;;;;;5089338;28;20193;-76
2023/09/13 04:10:13;;;;;;;11.83;8.97;;;18.40;99.90;;;;;;5071060;28;20604;-76
2023/09/13 04:12:38;;;;;;;11.73;8.33;;;18.30;99.90;;;;;;5070914;28;20190;-76
2023/09/13 04:15:05;;;;;;;13.00;8.53;;;18.20;99.90;;;;;;5070902;28;20581;-76
2023/09/13 04:17:30;;;;;;;16.43;9.30;;;18.20;99.90;;;;;;5088785;28;20214;-76
2023/09/13 04:19:56;;;;;;;11.20;9.20;;;18.20;99.90;;;;;;5088846;28;20555;-76
2023/09/13 04:22:21;;;;;;;11.60;8.33;;;18.30;99.90;;;;;;5070733;28;20198;-76
2023/09/13 04:24:47;;;;;;;10.03;8.53;;;18.30;99.90;;;;;;5070176;28;20786;-76
2023/09/13 04:27:20;;;;;;;11.97;8.30;;;18.40;99.90;;;;;;5054134;28;20601;-76
2023/09/13 04:29:46;;;;;;;9.83;8.00;;;18.50;99.90;;;;;;5088439;28;20202;-76
2023/09/13 04:32:11;;;;;;;12.63;9.60;;;18.40;99.90;;;;;;5088387;28;20459;-76
2023/09/13 04:34:37;;;;;;;9.57;8.57;;;18.40;99.90;;;;;;5070006;28;20259;-76
2023/09/13 04:37:05;;;;;;;10.67;9.10;;;18.40;99.90;;;;;;5069684;28;20589;-76
2023/09/13 04:39:33;;;;;;;12.20;9.03;;;18.40;99.90;;;;;;5087450;28;20436;-76
2023/09/13 04:41:59;;;;;;;12.07;7.90;;;18.40;99.90;;;;;;5087162;28;20436;-76
2023/09/13 04:44:26;;;;;;;8.70;7.90;;;18.40;99.90;;;;;;5087230;28;20451;-76
2023/09/13 04:46:52;;;;;;;10.20;9.00;;;18.40;99.90;;;;;;5088121;28;20413;-76
2023/09/13 04:49:18;;;;;;;12.93;8.00;;;18.30;99.90;;;;;;5091048;28;20424;-76
2023/09/13 04:51:44;;;;;;;8.90;7.13;;;18.30;99.90;;;;;;5090624;28;20436;-75
2023/09/13 04:54:10;;;;;;;10.43;8.20;;;18.20;99.90;;;;;;5090481;28;20821;-76
2023/09/13 04:56:35;;;;;;;12.13;9.40;;;18.20;99.90;;;;;;5071795;28;20267;-76
2023/09/13 04:59:01;;;;;;;10.53;8.00;;;18.30;99.90;;;;;;5072103;28;20319;-72
2023/09/13 05:01:27;;;;;;;13.47;9.60;;;18.30;99.90;;;;;;5071897;28;20184;-73
2023/09/13 05:03:52;;;;;;;12.33;8.93;;;18.20;99.90;;;;;;5090045;28;20198;-73
2023/09/13 05:06:18;;;;;;;11.27;9.80;;;18.20;99.90;;;;;;5071712;28;20196;-73
2023/09/13 05:08:44;;;;;;;13.67;9.07;;;18.10;99.90;;;;;;5090023;28;20685;-73
2023/09/13 05:11:10;;;;;;;12.97;9.80;;;18.20;99.90;;;;;;5071709;28;20411;-73
2023/09/13 05:13:39;;;;;;;9.13;8.23;;;18.20;99.90;;;;;;5090006;28;20216;-73
2023/09/13 05:16:05;;;;;;;10.50;8.60;;;18.30;99.90;;;;;;5071363;28;20466;-74
2023/09/13 05:18:30;;;;;;;10.30;8.60;;;18.30;99.90;;;;;;5089829;28;20464;-73
2023/09/13 05:20:56;;;;;;;9.70;7.70;;;18.40;99.90;;;;;;5089808;28;20930;-73
2023/09/13 05:23:22;;;;;;;13.50;8.63;;;18.40;99.90;;;;;;5089928;28;20251;-73
2023/09/13 05:25:49;;;;;;;10.10;7.73;;;18.40;99.90;;;;;;5089804;28;20191;-73
2023/09/13 05:28:15;;;;;;;10.83;8.50;;;18.50;99.90;;;;;;5089693;28;20171;-74
2023/09/13 05:30:42;;;;;;;11.30;8.00;;;18.40;99.90;;;;;;5089979;28;20416;-73
2023/09/13 05:33:08;;;;;;;11.03;8.07;;;18.50;99.90;;;;;;5071977;28;20545;-73
2023/09/13 05:35:34;;;;;;;22.10;9.73;;;18.50;99.90;;;;;;5071084;28;20427;-74
2023/09/13 05:37:59;;;;;;;12.40;9.70;;;18.50;99.90;;;;;;5089628;28;20414;-73
2023/09/13 05:40:29;;;;;;;15.43;10.17;;;18.40;99.90;;;;;;5089745;28;20971;-74
2023/09/13 05:42:55;;;;;;;19.53;10.97;;;18.50;99.90;;;;;;5071176;28;20323;-73
2023/09/13 05:45:23;;;;;;;14.93;10.67;;;18.40;99.90;;;;;;5089705;28;20503;-74
2023/09/13 05:47:49;;;;;;;13.70;11.13;;;18.40;99.90;;;;;;5089972;28;21142;-73
2023/09/13 05:50:14;;;;;;;14.70;10.50;;;18.50;99.90;;;;;;5071685;28;20418;-73
2023/09/13 05:52:40;;;;;;;13.07;10.33;;;18.50;99.90;;;;;;5038239;28;20444;-73
2023/09/13 05:55:07;;;;;;;17.73;11.03;;;18.50;99.90;;;;;;5090603;28;20189;-73
2023/09/13 05:57:32;;;;;;;11.93;10.67;;;18.50;99.90;;;;;;5090171;28;20476;-73
2023/09/13 05:59:58;;;;;;;13.30;11.83;;;18.50;99.90;;;;;;5089908;28;20783;-74
2023/09/13 06:02:24;;;;;;;13.40;11.87;;;18.60;99.90;;;;;;5089545;28;20178;-73
2023/09/13 06:04:49;;;;;;;15.23;11.73;;;18.60;99.90;;;;;;5071550;28;20203;-74
2023/09/13 06:07:15;;;;;;;16.90;11.17;;;18.60;99.90;;;;;;5071446;28;20619;-74
2023/09/13 06:09:40;;;;;;;16.33;12.23;;;18.70;99.90;;;;;;5089773;28;20187;-73
2023/09/13 06:12:06;;;;;;;15.20;11.47;;;18.70;99.90;;;;;;5054539;28;20191;-73
2023/09/13 06:14:32;;;;;;;17.27;12.43;;;18.80;99.90;;;;;;5071081;28;20752;-73
2023/09/13 06:16:58;;;;;;;17.07;12.40;;;18.90;99.90;;;;;;5089104;28;20558;-74
2023/09/13 06:19:23;;;;;;;19.10;12.53;;;18.90;99.90;;;;;;5089334;28;20870;-74
2023/09/13 06:21:49;;;;;;;17.83;13.37;;;18.90;99.90;;;;;;5070815;28;20939;-73
2023/09/13 06:24:15;;;;;;;15.10;10.90;;;18.90;99.90;;;;;;5089251;28;20205;-73
2023/09/13 06:26:40;;;;;;;17.90;11.73;;;18.90;99.90;;;;;;5089493;28;20956;-74
2023/09/13 06:29:06;;;;;;;21.07;11.67;;;18.90;99.90;;;;;;5070925;28;20213;-73
2023/09/13 06:31:32;;;;;;;13.37;11.40;;;18.90;99.90;;;;;;5089308;28;20185;-73
2023/09/13 06:33:58;;;;;;;13.50;11.43;;;18.90;99.90;;;;;;5089190;28;20665;-73
2023/09/13 06:36:24;;;;;;;12.33;10.63;;;19.00;99.90;;;;;;5070507;28;20463;-73
2023/09/13 06:38:50;;;;;;;17.80;11.80;;;19.00;99.90;;;;;;5089026;28;20482;-73
2023/09/13 06:41:16;;;;;;;15.80;12.40;;;19.10;99.90;;;;;;5070692;28;20182;-73
2023/09/13 06:43:44;;;;;;;14.50;11.10;;;19.20;99.90;;;;;;5088836;28;20445;-73
2023/09/13 06:46:10;;;;;;;13.30;11.57;;;19.20;99.90;;;;;;5088886;28;20190;-73
2023/09/13 06:48:36;;;;;;;13.67;10.40;;;19.30;99.90;;;;;;5089066;28;20425;-73
2023/09/13 06:51:03;;;;;;;15.83;11.77;;;19.30;99.90;;;;;;5053491;28;20436;-72
2023/09/13 06:53:28;;;;;;;12.73;9.70;;;19.40;99.90;;;;;;5088409;28;20444;-73
2023/09/13 06:55:54;;;;;;;11.27;9.63;;;19.50;99.90;;;;;;5069922;28;21073;-73
2023/09/13 06:58:20;;;;;;;9.43;8.37;;;19.50;99.90;;;;;;5069983;28;20555;-74
2023/09/13 07:00:45;;;;;;;11.10;9.20;;;19.60;99.90;;;;;;5069753;28;20686;-73
2023/09/13 07:03:11;;;;;;;13.67;9.60;;;19.60;99.90;;;;;;5053078;28;20847;-73
2023/09/13 07:05:36;;;;;;;14.10;9.70;;;19.70;99.90;;;;;;5069797;28;20224;-74
2023/09/13 07:08:03;;;;;;;11.30;9.90;;;19.70;99.90;;;;;;5069615;28;20698;-73
2023/09/13 07:10:29;;;;;;;16.27;9.40;;;19.70;99.90;;;;;;5068735;28;20183;-73
2023/09/13 07:12:55;;;;;;;12.73;10.00;;;19.70;99.90;;;;;;5087625;28;20472;-73
2023/09/13 07:15:21;;;;;;;10.00;7.53;;;19.60;99.90;;;;;;5087881;28;20505;-73
2023/09/13 07:17:46;;;;;;;8.47;7.60;;;19.70;99.90;;;;;;5052672;28;20210;-74
2023/09/13 07:20:12;;;;;;;10.00;7.93;;;19.80;99.90;;;;;;5087994;28;20171;-74
2023/09/13 07:22:39;;;;;;;11.10;8.03;;;19.90;99.90;;;;;;5069352;28;20194;-74
2023/09/13 07:25:05;;;;;;;11.60;7.10;;;19.90;99.90;;;;;;5087670;28;20174;-74
2023/09/13 07:27:31;;;;;;;9.27;7.10;;;19.90;99.90;;;;;;5087824;28;20962;-74
2023/09/13 07:29:56;;;;;;;12.93;7.43;;;19.90;99.90;;;;;;5087424;28;20416;-73
2023/09/13 07:32:22;;;;;;;10.60;6.93;;;20.00;99.90;;;;;;5087392;28;20213;-74
2023/09/13 07:34:48;;;;;;;10.40;7.73;;;20.10;99.90;;;;;;5068707;28;20206;-74
2023/09/13 07:37:13;;;;;;;9.63;8.00;;;20.10;99.90;;;;;;5068963;28;20277;-73
2023/09/13 07:39:41;;;;;;;8.50;7.07;;;20.20;99.90;;;;;;5069031;28;20319;-73
2023/09/13 07:42:07;;;;;;;12.97;7.40;;;20.30;99.90;;;;;;5087455;28;20183;-73
2023/09/13 07:44:33;;;;;;;9.80;7.80;;;20.30;99.90;;;;;;5087100;28;20494;-73
2023/09/13 07:46:58;;;;;;;9.00;7.77;;;20.40;99.90;;;;;;5087191;28;20451;-73
2023/09/13 07:49:25;;;;;;;9.30;7.57;;;20.50;99.90;;;;;;5087277;28;20776;-73
2023/09/13 07:51:51;;;;;;;9.00;7.10;;;20.50;99.90;;;;;;5068818;28;20936;-73
2023/09/13 07:54:17;;;;;;;7.70;6.90;;;20.50;99.90;;;;;;5086823;28;20487;-73
2023/09/13 07:56:43;;;;;;;8.00;7.30;;;20.50;99.90;;;;;;5087032;28;20488;-73
2023/09/13 07:59:13;;;;;;;8.00;7.20;;;20.60;99.90;;;;;;5068560;28;20448;-73
2023/09/13 08:01:39;;;;;;;8.87;7.50;;;20.60;99.90;;;;;;5087219;28;20412;-73
2023/09/13 08:04:05;;;;;;;11.13;7.30;;;20.60;99.90;;;;;;5086884;28;20897;-73
2023/09/13 08:06:31;;;;;;;7.83;7.03;;;20.60;99.90;;;;;;5087078;28;20512;-73
2023/09/13 08:08:58;;;;;;;9.23;7.07;;;20.70;99.90;;;;;;5086851;28;20507;-73
2023/09/13 08:11:23;;;;;;;9.67;6.60;;;20.70;99.90;;;;;;5086884;28;20609;-73
2023/09/13 08:13:49;;;;;;;7.87;6.57;;;20.80;99.90;;;;;;5086887;28;20562;-73
2023/09/13 08:16:16;;;;;;;9.23;7.50;;;20.90;99.90;;;;;;5068860;28;20221;-73
2023/09/13 08:18:41;;;;;;;10.70;7.10;;;21.00;99.90;;;;;;5086985;28;20272;-73
2023/09/13 08:21:07;;;;;;;9.03;7.13;;;21.10;99.90;;;;;;5068786;28;20929;-73
2023/09/13 08:23:33;;;;;;;12.20;6.77;;;21.20;99.90;;;;;;5090987;28;20190;-73
2023/09/13 08:25:59;;;;;;;7.77;6.97;;;21.30;99.90;;;;;;5091124;28;20198;-73
2023/09/13 08:28:24;;;;;;;9.17;7.00;;;21.40;99.90;;;;;;5072973;28;20589;-73
2023/09/13 08:30:51;;;;;;;7.77;7.03;;;21.40;99.90;;;;;;5091699;28;20252;-73
2023/09/13 08:33:16;;;;;;;7.97;6.73;;;21.40;99.90;;;;;;5091458;28;21025;-73
2023/09/13 08:35:42;;;;;;;10.67;6.90;;;21.50;99.90;;;;;;5073162;28;20426;-73
2023/09/13 08:38:08;;;;;;;9.57;6.87;;;21.50;99.90;;;;;;5091287;28;20179;-73
2023/09/13 08:40:41;;;;;;;13.90;7.33;;;21.50;99.90;;;;;;5073190;28;20418;-73
2023/09/13 08:43:09;;;;;;;9.53;7.50;;;21.40;99.90;;;;;;5091563;28;20519;-74
2023/09/13 08:45:36;;;;;;;13.50;7.00;;;21.40;99.90;;;;;;5073337;28;20425;-73
2023/09/13 08:48:02;;;;;;;10.20;8.00;;;21.40;99.90;;;;;;5091224;28;20418;-74
2023/09/13 08:50:29;;;;;;;11.77;7.47;;;21.40;99.90;;;;;;5090993;28;20436;-73
2023/09/13 08:52:59;;;;;;;12.63;7.10;;;21.50;99.90;;;;;;5091575;28;20443;-73
2023/09/13 08:55:25;;;;;;;10.00;6.03;;;21.50;99.90;;;;;;5056409;28;20973;-73
2023/09/13 08:57:53;;;;;;;11.73;6.90;;;21.60;99.90;;;;;;5073165;28;20985;-73
2023/09/13 09:00:19;;;;;;;9.67;8.10;;;21.70;99.90;;;;;;5091076;28;20420;-73
2023/09/13 09:02:47;;;;;;;10.50;8.13;;;21.80;99.90;;;;;;5090922;28;20418;-73
2023/09/13 09:05:15;;;;;;;8.43;7.30;;;21.80;99.90;;;;;;5090711;28;20213;-73
2023/09/13 09:07:43;;;;;;;14.13;7.83;;;21.80;99.90;;;;;;5090681;28;20425;-73
2023/09/13 09:10:12;;;;;;;13.70;7.63;;;21.80;99.90;;;;;;5071876;28;20842;-73
2023/09/13 09:12:43;;;;;;;12.83;7.40;;;21.70;99.90;;;;;;5090048;28;20427;-74
2023/09/13 09:15:11;;;;;;;8.83;7.13;;;21.70;99.90;;;;;;5055256;28;21180;-73
2023/09/13 09:17:38;;;;;;;7.80;7.10;;;21.60;99.90;;;;;;5089662;28;20533;-73
2023/09/13 09:20:04;;;;;;;10.80;8.60;;;21.50;99.90;;;;;;5071428;28;20428;-72
2023/09/13 09:22:30;;;;;;;9.97;8.67;;;21.50;99.90;;;;;;5089756;28;20469;-73
2023/09/13 09:24:59;;;;;;;13.83;8.50;;;21.50;99.90;;;;;;5054829;28;20436;-74
2023/09/13 09:27:24;;;;;;;13.97;9.30;;;21.50;99.90;;;;;;5071067;28;20813;-73
2023/09/13 09:30:00;;;;;;;11.50;9.53;;;21.30;99.90;;;;;;5071357;28;20427;-74
2023/09/13 09:32:28;;;;;;;11.43;10.23;;;21.20;99.90;;;;;;5089083;28;20184;-73
2023/09/13 09:34:57;;;;;;;13.10;8.43;;;21.10;99.90;;;;;;5071087;28;20460;-74
2023/09/13 09:37:34;;;;;;;9.17;7.93;;;21.10;99.90;;;;;;5089844;28;20480;-74
2023/09/13 09:40:00;;;;;;;12.87;8.80;;;21.10;99.90;;;;;;5089719;28;20443;-72
2023/09/13 09:42:26;;;;;;;10.00;8.43;;;21.00;99.90;;;;;;5090036;28;20416;-74
2023/09/13 09:44:52;;;;;;;15.73;9.80;;;21.00;99.90;;;;;;5071524;28;20498;-73
2023/09/13 09:47:19;;;;;;;14.57;8.80;;;21.00;99.90;;;;;;5090119;28;20527;-73
2023/09/13 09:49:52;;;;;;;15.60;9.30;;;20.90;99.90;;;;;;5071990;28;20456;-74
2023/09/13 09:52:18;;;;;;;13.80;11.00;;;21.00;99.90;;;;;;5089958;28;20444;-73
2023/09/13 09:54:48;;;;;;;12.57;9.50;;;21.00;99.90;;;;;;5089946;28;20451;-72
2023/09/13 09:57:20;;;;;;;13.13;9.90;;;21.00;99.90;;;;;;5089890;28;20467;-73
2023/09/13 09:59:46;;;;;;;19.23;9.70;;;21.10;99.90;;;;;;5090002;28;20508;-73
2023/09/13 10:02:12;;;;;;;13.93;10.10;;;21.20;99.90;;;;;;5089854;28;20507;-72
2023/09/13 10:04:45;;;;;;;11.37;9.17;;;21.20;99.90;;;;;;5071218;28;20257;-72
2023/09/13 10:07:11;;;;;;;22.37;9.57;;;21.30;99.90;;;;;;5089818;28;20414;-74
2023/09/13 10:09:43;;;;;;;16.50;8.57;;;21.40;99.90;;;;;;5089618;28;20436;-73
2023/09/13 10:12:10;;;;;;;8.53;7.70;;;21.50;99.90;;;;;;5089327;28;20227;-73
2023/09/13 10:14:37;;;;;;;10.10;8.53;;;21.60;99.90;;;;;;5089157;28;20449;-73
2023/09/13 10:17:04;;;;;;;9.70;8.70;;;21.80;99.90;;;;;;5054242;28;21058;-73
2023/09/13 10:19:31;;;;;;;10.17;8.50;;;21.70;99.90;;;;;;5088921;28;20862;-74
2023/09/13 10:21:57;;;;;;;9.33;8.37;;;21.80;99.90;;;;;;5070419;28;20428;-74
2023/09/13 10:24:28;;;;;;;7.80;7.10;;;21.80;99.90;;;;;;5070352;28;21042;-73
2023/09/13 10:26:55;;;;;;;9.03;6.73;;;21.90;99.90;;;;;;5070239;28;20470;-73
2023/09/13 10:29:39;;;;;;;11.23;6.77;;;21.80;99.90;;;;;;5088912;28;20427;-74
2023/09/13 10:32:09;;;;;;;8.23;6.63;;;21.90;99.90;;;;;;5070088;28;20432;-73
2023/09/13 10:34:37;;;;;;;8.87;6.50;;;21.90;99.90;;;;;;5088367;28;20864;-74
2023/09/13 10:37:11;;;;;;;8.70;6.70;;;21.80;99.90;;;;;;5088172;28;20500;-74
2023/09/13 10:39:47;;;;;;;7.03;5.90;;;21.70;99.90;;;;;;5069841;28;20426;-74
2023/09/13 10:42:12;;;;;;;8.30;6.33;;;21.70;99.90;;;;;;5069553;28;20437;-74
2023/09/13 10:44:39;;;;;;;8.93;6.97;;;21.60;99.90;;;;;;5086724;28;20445;-74
2023/09/13 10:47:06;;;;;;;6.00;5.40;;;21.50;99.90;;;;;;5069594;28;20192;-74
2023/09/13 10:49:33;;;;;;;7.80;6.13;;;21.50;99.90;;;;;;5070542;28;20508;-74
2023/09/13 10:52:00;;;;;;;6.60;6.00;;;21.50;99.90;;;;;;5087588;28;20437;-74
2023/09/13 10:54:28;;;;;;;7.20;5.50;;;21.40;99.90;;;;;;5088026;28;20503;-74
2023/09/13 10:56:55;;;;;;;6.60;4.73;;;21.40;99.90;;;;;;5087889;28;20469;-74
2023/09/13 10:59:23;;;;;;;4.57;4.17;;;21.50;99.90;;;;;;5087964;28;20429;-74
2023/09/13 11:01:49;;;;;;;5.37;4.60;;;21.50;99.90;;;;;;5053065;28;20518;-74
2023/09/13 11:04:17;;;;;;;6.00;4.50;;;21.40;99.90;;;;;;5087313;28;20520;-74
2023/09/13 11:06:44;;;;;;;5.50;5.00;;;21.50;99.90;;;;;;5087592;28;20265;-74
2023/09/13 11:09:23;;;;;;;6.93;5.27;;;21.50;99.90;;;;;;5087593;28;20443;-74
2023/09/13 11:11:53;;;;;;;7.93;6.40;;;21.50;99.90;;;;;;5087530;28;20938;-74
2023/09/13 11:14:27;;;;;;;5.97;5.40;;;21.50;99.90;;;;;;5087427;28;20528;-74
2023/09/13 11:16:53;;;;;;;8.70;6.10;;;21.50;99.90;;;;;;5052622;28;20484;-74
2023/09/13 11:19:28;;;;;;;6.90;5.17;;;21.50;99.90;;;;;;5069167;28;20996;-74
2023/09/13 11:22:06;;;;;;;4.90;4.30;;;21.60;99.90;;;;;;5087498;28;20411;-74
2023/09/13 11:24:43;;;;;;;5.20;4.33;;;21.60;99.90;;;;;;5070873;28;20447;-74
2023/09/13 11:27:17;;;;;;;4.40;4.00;;;21.50;99.90;;;;;;5087774;28;20930;-74
2023/09/13 11:29:58;;;;;;;4.77;3.33;;;21.40;99.90;;;;;;5087442;28;20450;-74
2023/09/13 11:32:29;;;;;;;3.60;3.17;;;21.30;99.90;;;;;;5087335;28;20413;-74
2023/09/13 11:34:56;;;;;;;3.33;3.03;;;21.30;99.90;;;;;;5069163;28;20962;-75
2023/09/13 11:37:26;;;;;;;3.77;3.27;;;21.30;99.90;;;;;;5068984;28;20473;-75
2023/09/13 11:39:53;;;;;;;5.10;3.20;;;21.20;99.90;;;;;;5052077;28;20938;-75
2023/09/13 11:42:28;;;;;;;4.03;3.10;;;21.20;99.90;;;;;;5087395;28;20417;-75
2023/09/13 11:44:58;;;;;;;4.37;3.67;;;21.30;99.90;;;;;;5086972;28;20452;-74
2023/09/13 11:47:24;;;;;;;3.80;3.50;;;21.30;99.90;;;;;;5087148;28;20424;-74
2023/09/13 11:49:56;;;;;;;4.17;3.50;;;21.30;99.90;;;;;;5068928;28;20425;-74
2023/09/13 11:52:22;;;;;;;4.43;4.03;;;21.70;99.90;;;;;;5087396;28;20602;-74
2023/09/13 11:54:52;;;;;;;4.80;4.30;;;21.80;99.90;;;;;;5069149;28;20546;-74
2023/09/13 11:57:21;;;;;;;7.30;3.90;;;21.90;99.90;;;;;;5087590;28;20573;-74
2023/09/13 11:59:51;;;;;;;4.60;4.10;;;22.20;99.90;;;;;;5069811;28;20474;-74
2023/09/13 12:02:17;;;;;;;4.60;4.20;;;22.40;99.90;;;;;;5088269;28;20450;-73
2023/09/13 12:04:43;;;;;;;4.63;3.40;;;22.50;99.90;;;;;;5087271;28;20449;-73
2023/09/13 12:07:09;;;;;;;4.83;3.83;;;22.60;99.90;;;;;;5068761;28;20435;-74
2023/09/13 12:09:36;;;;;;;7.07;4.30;;;22.50;99.90;;;;;;5051948;28;20485;-74
2023/09/13 12:12:02;;;;;;;6.37;4.00;;;22.50;99.90;;;;;;5087452;28;20835;-74
2023/09/13 12:14:31;;;;;;;6.93;4.60;;;22.40;99.90;;;;;;5068589;28;20454;-74
2023/09/13 12:16:57;;;;;;;6.50;3.80;;;22.30;99.90;;;;;;5068325;28;20478;-73
2023/09/13 12:19:25;;;;;;;4.20;3.80;;;22.20;99.90;;;;;;5051473;28;20454;-75
2023/09/13 12:21:50;;;;;;;4.60;3.90;;;22.10;99.90;;;;;;5086583;28;20427;-74
2023/09/13 12:24:21;;;;;;;5.63;3.90;;;22.00;99.90;;;;;;5086386;28;20445;-74
2023/09/13 12:26:50;;;;;;;2.90;2.70;;;22.00;99.90;;;;;;5068094;28;20188;-74
2023/09/13 12:29:15;;;;;;;3.30;3.00;;;22.00;99.90;;;;;;5051868;28;20470;-75
2023/09/13 12:31:42;;;;;;;3.30;3.10;;;22.00;99.90;;;;;;5068108;28;21303;-75
2023/09/13 12:34:09;;;;;;;3.97;2.90;;;22.10;99.90;;;;;;5067816;28;20525;-74
2023/09/13 12:36:35;;;;;;;4.53;2.70;;;22.10;99.90;;;;;;5068249;28;20896;-75
2023/09/13 12:39:01;;;;;;;3.10;2.80;;;22.10;99.90;;;;;;5086661;28;20422;-75